This is the latest recevied weather packets stored in our database for station/object IN3APK-3. If no packets are shown the sender has not sent any weather packets the latest 1 day(s).
| Time | Temp. | Humidity | Pressure | Rain* | Wind** | Luminosity | Snow |
|---|---|---|---|---|---|---|---|
| 1778082205 | 15.56° C | 68% | 1002.8 hPa | - | - | - | - |
| 1778080901 | 15.56° C | 70% | 1002.8 hPa | - | - | - | - |
| 1778079596 | 15.56° C | 71% | 1002.9 hPa | - | - | - | - |
| 1778078288 | 10.56° C | 75% | 1003.1 hPa | - | - | - | - |
| 1778075028 | 11.67° C | 73% | 1003.4 hPa | - | - | - | - |
| 1778074376 | 11.11° C | 74% | 1003.6 hPa | - | - | - | - |
| 1778073071 | 11.11° C | 73% | 1003.1 hPa | - | - | - | - |
| 1778071766 | 10.56° C | 73% | 1003.8 hPa | - | - | - | - |
| 1778068507 | 12.78° C | 69% | 1003.2 hPa | - | - | - | - |
| 1778067202 | 11.67° C | 71% | 1003.3 hPa | - | - | - | - |
| 1778063287 | 9.44° C | 71% | 1004.4 hPa | - | - | - | - |
| 1778061982 | 10° C | 71% | 1004.3 hPa | - | - | - | - |
| 1778061330 | 10° C | 71% | 1004.3 hPa | - | - | - | - |
| 1778060027 | 10.56° C | 70% | 1004.2 hPa | - | - | - | - |
| 1778059375 | 10.56° C | 69% | 1004.3 hPa | - | - | - | - |
| 1778058070 | 10.56° C | 69% | 1004.5 hPa | - | - | - | - |
| 1778057418 | 10.56° C | 69% | 1004.3 hPa | - | - | - | - |
| 1778056766 | 10.56° C | 69% | 1004.3 hPa | - | - | - | - |
| 1778054809 | 10.56° C | 68% | 1004.5 hPa | - | - | - | - |
| 1778054157 | 10.56° C | 67% | 1004.3 hPa | - | - | - | - |
| 1778053505 | 11.11° C | 67% | 1004.3 hPa | - | - | - | - |
| 1778052200 | 11.11° C | 66% | 1004.4 hPa | - | - | - | - |
| 1778050896 | 11.67° C | 66% | 1004.4 hPa | - | - | - | - |
| 1778049592 | 11.11° C | 66% | 1004.7 hPa | - | - | - | - |
| 1778048940 | 10.56° C | 66% | 1004.8 hPa | - | - | - | - |
* Rain since midnight (hover to see other rain measurements)
** Current wind speed in m/s (hover to see current wind gust speed)